Portland Hillsboro Airport Portland US
ICAO: KHIO
IATA: HIO
Category: Medium
Scheduled Services: No

Elevation: 208 ft
TransAlt. 18000 ft.

Airport Communications:
APP/DEP:126
ATIS:127.65
CTAF:119.3
GND:121.7
HILLSBORO TWR:119.3
UNICOM:122.95

KHIO Zoom In..

If you have problems with the map follow the link
https://www.worldairports.se/pages/airport.php?
ICAO=KHIO

Runways:

(A) RW 02 length 4050 ft width 100 ft
---- / hdg 23

(B) RW 13 length 6600 ft width 150 ft
ILS 110.70 / hdg 127

(C) RW 20 length 4050 ft width 100 ft
---- / hdg 203

(D) RW 31 length 6600 ft width 150 ft
---- / hdg 307

Location; KHIO
Day. 17 / Time. 20.53 Zulu
* Altimeter: 30.18
* Temperature: 05° c. 41°f.
* Wind from: 170° Speed 09 kn.
Dewpoint: 03° c.
Visibility: 7 Statute Miles.
Clouds: Overcast 1200 ft.

KHIO 172053Z 17009KT 7SM OVC012 05/03 A3018 RMK AO2 SLP221 60000 T00500028 50009


Wind From 170°
Speed 09 kn.

 
 
jpsmedia worldairports.se 2020   terms of use